createdAt,value
2022-10-13T00:00:18.909Z,87.97
2022-10-13T00:02:46.930Z,88.26
2022-10-13T00:05:14.677Z,88.34
2022-10-13T00:07:42.587Z,88.80
2022-10-13T00:10:10.965Z,89.83
2022-10-13T00:12:40.833Z,90.49
2022-10-13T00:15:09.956Z,90.15
2022-10-13T00:17:37.876Z,90.52
2022-10-13T00:20:07.220Z,89.71
2022-10-13T00:22:35.050Z,90.76
2022-10-13T00:25:03.584Z,90.75
2022-10-13T00:27:31.446Z,90.26
2022-10-13T00:30:00.594Z,90.76
2022-10-13T00:32:28.382Z,89.92
2022-10-13T00:34:57.709Z,90.30
2022-10-13T00:37:25.788Z,90.00
2022-10-13T00:39:53.637Z,91.02
2022-10-13T00:42:23.409Z,91.81
2022-10-13T00:45:08.732Z,92.04
2022-10-13T00:47:40.960Z,92.17
2022-10-13T00:50:12.487Z,91.60
2022-10-13T00:52:42.457Z,91.13
2022-10-13T00:55:12.917Z,91.31
2022-10-13T00:57:43.885Z,91.13
2022-10-13T01:00:14.500Z,91.43
2022-10-13T01:02:42.379Z,90.62
2022-10-13T01:05:10.539Z,90.84
2022-10-13T01:07:38.494Z,90.51
2022-10-13T01:10:07.199Z,90.72
2022-10-13T01:12:45.717Z,90.57
2022-10-13T01:15:23.645Z,90.35
2022-10-13T01:18:02.563Z,91.12
2022-10-13T01:20:53.978Z,90.60
2022-10-13T01:23:49.480Z,91.23
2022-10-13T01:26:28.251Z,90.86
2022-10-13T01:29:25.947Z,90.70
2022-10-13T01:32:03.177Z,90.71
2022-10-13T01:34:35.571Z,90.60
2022-10-13T01:37:10.764Z,90.37
2022-10-13T01:39:44.514Z,91.59
2022-10-13T01:42:18.679Z,91.73
2022-10-13T01:44:51.122Z,92.20
2022-10-13T01:47:21.445Z,91.70
2022-10-13T01:49:51.546Z,91.88
2022-10-13T01:52:22.793Z,93.42
2022-10-13T01:54:52.001Z,92.53
2022-10-13T01:57:32.992Z,92.84
2022-10-13T02:00:03.977Z,93.38
2022-10-13T02:02:38.342Z,93.07
2022-10-13T02:05:14.241Z,94.21
2022-10-13T02:07:48.407Z,93.81
2022-10-13T02:10:21.845Z,93.39
2022-10-13T02:12:54.473Z,93.30
2022-10-13T02:15:26.403Z,93.15
2022-10-13T02:17:56.429Z,92.98
2022-10-13T02:20:24.337Z,93.05
2022-10-13T02:22:58.920Z,93.72
2022-10-13T02:25:27.226Z,93.49
2022-10-13T02:27:55.040Z,93.04
2022-10-13T02:30:24.832Z,94.05
2022-10-13T02:32:52.978Z,93.63
2022-10-13T02:35:22.358Z,93.51
2022-10-13T02:37:50.090Z,93.41
2022-10-13T02:40:18.405Z,93.94
2022-10-13T02:42:46.181Z,93.45
2022-10-13T02:45:13.936Z,93.61
2022-10-13T02:47:41.852Z,93.46
2022-10-13T02:50:10.556Z,93.30
2022-10-13T02:52:39.873Z,93.35
2022-10-13T02:55:08.915Z,93.04
2022-10-13T02:57:36.769Z,92.87
2022-10-13T03:00:07.152Z,92.65
2022-10-13T03:02:35.035Z,92.95
2022-10-13T03:05:02.814Z,93.19
2022-10-13T03:07:30.677Z,92.74
2022-10-13T03:09:59.801Z,92.93
2022-10-13T03:12:27.548Z,92.98
2022-10-13T03:14:55.297Z,93.03
2022-10-13T03:17:23.149Z,93.81
2022-10-13T03:19:50.973Z,94.10
2022-10-13T03:22:19.128Z,93.68
2022-10-13T03:24:47.135Z,93.71
2022-10-13T03:27:16.475Z,93.87
2022-10-13T03:29:44.397Z,93.74
2022-10-13T03:32:12.125Z,93.89
2022-10-13T03:34:39.918Z,93.34
2022-10-13T03:37:07.690Z,93.22
2022-10-13T03:39:35.484Z,93.30
2022-10-13T03:42:03.258Z,92.98
2022-10-13T03:44:32.705Z,93.56
2022-10-13T03:47:00.536Z,93.24
2022-10-13T03:49:28.447Z,93.08
2022-10-13T03:51:56.232Z,93.95
2022-10-13T03:54:24.741Z,93.54
2022-10-13T03:56:52.528Z,93.20
2022-10-13T03:59:20.236Z,93.08
2022-10-13T04:01:49.435Z,93.14
2022-10-13T04:04:17.312Z,92.84
2022-10-13T04:06:45.082Z,92.40
2022-10-13T04:09:13.058Z,93.36
2022-10-13T04:11:40.793Z,92.57
2022-10-13T04:14:08.598Z,92.37
2022-10-13T04:16:36.389Z,92.56
2022-10-13T04:19:06.595Z,92.35
2022-10-13T04:21:35.886Z,92.95
2022-10-13T04:24:05.138Z,92.82
2022-10-13T04:26:36.598Z,92.27
2022-10-13T04:29:05.791Z,92.34
2022-10-13T04:31:33.968Z,92.18
2022-10-13T04:34:01.731Z,92.17
2022-10-13T04:36:31.351Z,92.13
2022-10-13T04:38:59.130Z,92.79
2022-10-13T04:41:26.913Z,92.32
2022-10-13T04:43:55.483Z,92.36
2022-10-13T04:46:25.851Z,92.27
2022-10-13T04:48:54.754Z,92.04
2022-10-13T04:51:24.458Z,93.04
2022-10-13T04:53:57.061Z,92.33
2022-10-13T04:56:25.491Z,92.23
2022-10-13T04:58:53.295Z,92.01
2022-10-13T05:01:23.496Z,92.07
2022-10-13T05:03:52.790Z,92.26
2022-10-13T05:06:22.927Z,91.91
2022-10-13T05:08:51.092Z,92.04
2022-10-13T05:11:20.738Z,92.15
2022-10-13T05:13:48.930Z,91.90
2022-10-13T05:16:19.119Z,91.90
2022-10-13T05:18:46.974Z,92.44
2022-10-13T05:21:16.250Z,92.57
2022-10-13T05:23:45.285Z,92.15
2022-10-13T05:26:15.310Z,92.29
2022-10-13T05:28:45.186Z,92.21
2022-10-13T05:31:14.585Z,92.14
2022-10-13T05:33:43.099Z,92.09
2022-10-13T05:36:13.441Z,92.19
2022-10-13T05:38:41.256Z,92.39
2022-10-13T05:41:11.713Z,91.98
2022-10-13T05:43:40.524Z,91.95
2022-10-13T05:46:10.480Z,92.09
2022-10-13T05:48:38.862Z,91.91
2022-10-13T05:51:12.023Z,91.95
2022-10-13T05:53:48.174Z,92.02
2022-10-13T05:56:22.698Z,92.33
2022-10-13T05:58:54.821Z,91.97
2022-10-13T06:01:28.817Z,93.17
2022-10-13T06:04:00.793Z,92.54
2022-10-13T06:06:31.419Z,92.54
2022-10-13T06:08:59.714Z,92.94
2022-10-13T06:11:27.595Z,92.53
2022-10-13T06:13:55.387Z,92.53
2022-10-13T06:16:24.526Z,92.41
2022-10-13T06:18:52.314Z,92.05
2022-10-13T06:21:20.108Z,92.03
2022-10-13T06:23:47.871Z,91.77
2022-10-13T06:26:15.662Z,91.52
2022-10-13T06:28:47.658Z,91.50
2022-10-13T06:31:17.862Z,91.15
2022-10-13T06:33:46.970Z,91.28
2022-10-13T06:36:15.089Z,91.32
2022-10-13T06:38:42.847Z,91.11
2022-10-13T06:41:11.311Z,90.80
2022-10-13T06:43:40.575Z,90.99
2022-10-13T06:46:09.310Z,91.08
2022-10-13T06:48:37.137Z,90.81
2022-10-13T06:51:08.810Z,90.93
2022-10-13T06:53:36.741Z,90.82
2022-10-13T06:56:06.918Z,91.03
2022-10-13T06:58:36.047Z,90.85
2022-10-13T07:01:04.238Z,91.01
2022-10-13T07:03:32.409Z,91.14
2022-10-13T07:06:02.725Z,91.17
2022-10-13T07:08:32.500Z,91.04
2022-10-13T07:11:00.288Z,90.91
2022-10-13T07:13:29.627Z,91.78
2022-10-13T07:15:59.105Z,90.98
2022-10-13T07:18:27.195Z,91.21
2022-10-13T07:20:54.978Z,91.33
2022-10-13T07:23:22.763Z,91.25
2022-10-13T07:25:51.971Z,91.17
2022-10-13T07:28:20.319Z,91.18
2022-10-13T07:30:48.181Z,90.88
2022-10-13T07:33:15.933Z,91.03
2022-10-13T07:35:43.695Z,91.35
2022-10-13T07:38:14.679Z,91.40
2022-10-13T07:40:42.494Z,90.74
2022-10-13T07:43:11.627Z,91.09
2022-10-13T07:45:39.439Z,90.62
2022-10-13T07:48:07.389Z,91.10
2022-10-13T07:50:35.206Z,90.97
2022-10-13T07:53:02.940Z,90.93
2022-10-13T07:55:30.752Z,90.87
2022-10-13T07:57:58.744Z,91.00
2022-10-13T08:00:28.350Z,90.94
2022-10-13T08:02:56.187Z,91.33
2022-10-13T08:05:23.987Z,91.01
2022-10-13T08:07:54.695Z,91.24
2022-10-13T08:10:25.352Z,90.77
2022-10-13T08:12:53.305Z,90.87
2022-10-13T08:15:21.055Z,90.74
2022-10-13T08:17:50.148Z,90.52
2022-10-13T08:20:18.191Z,90.46
2022-10-13T08:22:47.617Z,90.79
2022-10-13T08:25:15.491Z,90.35
2022-10-13T08:27:51.007Z,90.06
2022-10-13T08:30:20.237Z,90.58
2022-10-13T08:32:48.107Z,90.60
2022-10-13T08:35:17.322Z,89.96
2022-10-13T08:37:45.024Z,89.78
2022-10-13T08:40:16.823Z,89.92
2022-10-13T08:42:45.933Z,89.64
2022-10-13T08:45:41.221Z,88.68
2022-10-13T08:48:14.928Z,89.15
2022-10-13T08:50:46.945Z,88.61
2022-10-13T08:53:22.418Z,88.90
2022-10-13T08:55:56.330Z,88.66
2022-10-13T08:58:27.711Z,88.51
2022-10-13T09:01:02.226Z,87.38
2022-10-13T09:03:31.511Z,88.11
2022-10-13T09:06:14.752Z,87.57
2022-10-13T09:08:45.492Z,87.42
2022-10-13T09:11:17.176Z,87.51
2022-10-13T09:13:44.981Z,87.50
2022-10-13T09:16:12.869Z,86.74
2022-10-13T09:18:41.027Z,86.63
2022-10-13T09:21:20.451Z,86.62
2022-10-13T09:23:50.959Z,87.02
2022-10-13T09:26:22.523Z,86.47
2022-10-13T09:28:51.125Z,86.39
2022-10-13T09:31:24.453Z,86.54
2022-10-13T09:34:00.029Z,85.07
2022-10-13T09:36:31.361Z,86.01
2022-10-13T09:39:08.761Z,85.68
2022-10-13T09:41:37.238Z,85.03
2022-10-13T09:44:12.207Z,83.54
2022-10-13T09:46:47.806Z,84.47
2022-10-13T09:49:38.475Z,83.14
2022-10-13T09:52:16.004Z,84.26
2022-10-13T09:54:47.433Z,83.56
2022-10-13T09:57:22.127Z,83.63
2022-10-13T09:59:51.712Z,83.17
2022-10-13T10:02:31.906Z,83.52
2022-10-13T10:05:06.543Z,82.51
2022-10-13T10:07:35.786Z,82.67
2022-10-13T10:10:06.552Z,82.23
2022-10-13T10:12:38.300Z,82.55
2022-10-13T10:15:18.322Z,82.20
2022-10-13T10:17:53.319Z,82.67
2022-10-13T10:20:37.429Z,81.78
2022-10-13T10:23:12.657Z,81.26
2022-10-13T10:25:45.816Z,81.32
2022-10-13T10:28:40.384Z,80.19
2022-10-13T10:31:20.218Z,80.04
2022-10-13T10:33:57.469Z,80.39
2022-10-13T10:36:33.847Z,79.11
2022-10-13T10:39:09.338Z,79.60
2022-10-13T10:41:46.064Z,78.67
2022-10-13T10:44:16.895Z,79.55
2022-10-13T10:46:48.321Z,78.26
2022-10-13T10:49:20.973Z,78.44
2022-10-13T10:51:49.310Z,78.01
2022-10-13T10:54:32.107Z,77.50
2022-10-13T10:57:07.844Z,77.97
2022-10-13T10:59:50.801Z,75.94
2022-10-13T11:02:35.922Z,75.80
2022-10-13T11:05:06.364Z,76.57
2022-10-13T11:07:57.490Z,75.73
2022-10-13T11:10:29.834Z,76.03
2022-10-13T11:13:22.216Z,76.03
2022-10-13T11:15:50.232Z,77.15
2022-10-13T11:18:55.008Z,75.32
2022-10-13T11:21:23.072Z,76.75
2022-10-13T11:23:55.546Z,75.24
2022-10-13T11:26:41.620Z,75.31
2022-10-13T11:29:19.956Z,74.70
2022-10-13T11:31:55.642Z,74.86
2022-10-13T11:34:32.692Z,75.48
2022-10-13T11:37:03.072Z,75.81
2022-10-13T11:40:04.703Z,75.23
2022-10-13T11:43:10.770Z,75.93
2022-10-13T11:46:17.300Z,75.79
2022-10-13T11:49:16.937Z,75.62
2022-10-13T11:52:14.850Z,75.95
2022-10-13T11:54:50.857Z,75.80
2022-10-13T11:57:26.532Z,76.06
2022-10-13T11:59:57.580Z,76.27
2022-10-13T12:02:27.520Z,76.52
2022-10-13T12:05:07.546Z,76.14
2022-10-13T12:07:38.871Z,76.62
2022-10-13T12:10:09.801Z,76.69
2022-10-13T12:12:37.945Z,76.95
2022-10-13T12:15:29.346Z,76.17
2022-10-13T12:17:57.351Z,77.04
2022-10-13T12:20:27.088Z,76.98
2022-10-13T12:22:56.552Z,77.61
2022-10-13T12:25:28.937Z,77.68
2022-10-13T12:27:59.760Z,77.71
2022-10-13T12:30:31.108Z,77.85
2022-10-13T12:33:00.842Z,78.03
2022-10-13T12:35:31.043Z,78.33
2022-10-13T12:38:03.226Z,78.60
2022-10-13T12:40:31.533Z,78.69
2022-10-13T12:42:59.658Z,79.01
2022-10-13T12:45:33.804Z,79.34
2022-10-13T12:48:01.656Z,79.88
2022-10-13T12:50:37.833Z,80.46
2022-10-13T12:53:23.508Z,80.85
2022-10-13T12:55:56.393Z,81.01
2022-10-13T12:58:28.151Z,81.17
2022-10-13T13:01:01.348Z,81.25
2022-10-13T13:03:30.874Z,81.37
2022-10-13T13:06:38.368Z,81.96
2022-10-13T13:09:31.224Z,81.48
2022-10-13T13:12:21.074Z,81.58
2022-10-13T13:14:49.625Z,81.59
2022-10-13T13:17:52.862Z,81.42
2022-10-13T13:20:26.743Z,81.16
2022-10-13T13:22:54.796Z,81.54
2022-10-13T13:25:22.985Z,82.00
2022-10-13T13:27:51.905Z,81.75
2022-10-13T13:30:22.370Z,81.90
2022-10-13T13:32:51.839Z,82.16
2022-10-13T13:35:19.800Z,81.47
2022-10-13T13:37:50.349Z,82.07
2022-10-13T13:40:20.058Z,82.08
2022-10-13T13:42:47.849Z,82.51
2022-10-13T13:45:16.263Z,82.54
2022-10-13T13:47:44.404Z,82.58
2022-10-13T13:50:18.136Z,82.43
2022-10-13T13:52:46.242Z,83.28
2022-10-13T13:55:14.121Z,83.15
2022-10-13T13:57:42.938Z,83.66
2022-10-13T14:00:13.206Z,83.49
2022-10-13T14:02:42.780Z,83.83
2022-10-13T14:05:11.137Z,83.63
2022-10-13T14:07:40.384Z,84.29
2022-10-13T14:10:10.669Z,84.66
2022-10-13T14:12:39.222Z,84.88
2022-10-13T14:15:07.980Z,85.22
2022-10-13T14:17:35.860Z,85.61
2022-10-13T14:20:03.869Z,85.89
2022-10-13T14:22:31.643Z,86.11
2022-10-13T14:25:00.862Z,86.50
2022-10-13T14:27:28.667Z,87.01
2022-10-13T14:29:56.534Z,87.10
2022-10-13T14:32:26.917Z,87.14
2022-10-13T14:34:54.732Z,88.06
2022-10-13T14:37:23.891Z,87.88
2022-10-13T14:39:52.923Z,88.53
2022-10-13T14:42:22.154Z,88.16
2022-10-13T14:44:49.968Z,88.23
2022-10-13T14:47:17.997Z,88.98
2022-10-13T14:49:45.988Z,88.94
2022-10-13T14:52:13.858Z,89.18
2022-10-13T14:54:44.812Z,89.49
2022-10-13T14:57:16.010Z,89.31
2022-10-13T14:59:45.581Z,89.51
2022-10-13T15:02:13.991Z,89.04
2022-10-13T15:04:41.935Z,88.83
2022-10-13T15:07:10.094Z,89.10
2022-10-13T15:09:52.457Z,88.41
2022-10-13T15:12:25.649Z,88.32
2022-10-13T15:14:54.905Z,88.61
2022-10-13T15:17:22.717Z,88.90
2022-10-13T15:19:52.964Z,88.72
2022-10-13T15:22:21.221Z,88.69
2022-10-13T15:24:49.295Z,88.48
2022-10-13T15:27:17.160Z,88.54
2022-10-13T15:29:44.950Z,88.54
2022-10-13T15:32:20.504Z,88.12
2022-10-13T15:34:48.748Z,88.73
2022-10-13T15:37:16.612Z,88.80
2022-10-13T15:39:44.613Z,88.79
2022-10-13T15:42:13.267Z,88.32
2022-10-13T15:47:31.033Z,88.63
2022-10-13T15:49:58.822Z,88.77
2022-10-13T15:52:29.730Z,88.99
2022-10-13T15:55:01.591Z,89.22
2022-10-13T15:57:29.469Z,88.77
2022-10-13T15:59:57.270Z,89.61
2022-10-13T16:02:25.174Z,90.10
2022-10-13T16:04:54.539Z,90.22
2022-10-13T16:07:22.293Z,90.02
2022-10-13T16:09:50.101Z,90.23
2022-10-13T16:12:17.978Z,90.12
2022-10-13T16:14:46.326Z,90.27
2022-10-13T16:17:14.105Z,89.74
2022-10-13T16:19:42.267Z,90.33
2022-10-13T16:22:11.788Z,89.73
2022-10-13T16:24:39.655Z,89.74
2022-10-13T16:27:07.679Z,89.56
2022-10-13T16:29:35.715Z,90.12
2022-10-13T16:32:03.579Z,90.34
2022-10-13T16:34:31.396Z,90.59
2022-10-13T16:36:59.203Z,90.23
2022-10-13T16:39:28.598Z,90.81
2022-10-13T16:41:56.467Z,91.26
2022-10-13T16:44:24.256Z,91.64
2022-10-13T16:46:53.850Z,92.15
2022-10-13T16:49:21.857Z,92.21
2022-10-13T16:51:49.833Z,92.44
2022-10-13T16:54:17.626Z,92.51
2022-10-13T16:56:46.945Z,93.29
2022-10-13T16:59:15.080Z,93.35
2022-10-13T17:01:42.878Z,94.62
2022-10-13T17:04:10.692Z,94.88
2022-10-13T17:06:39.531Z,94.51
2022-10-13T17:09:07.598Z,94.14
2022-10-13T17:11:37.231Z,94.25
2022-10-13T17:14:06.824Z,94.58
2022-10-13T17:16:35.928Z,94.61
2022-10-13T17:19:04.384Z,94.27
2022-10-13T17:21:32.338Z,94.37
2022-10-13T17:24:00.282Z,94.75
2022-10-13T17:26:28.203Z,94.41
2022-10-13T17:28:56.183Z,94.42
2022-10-13T17:31:26.036Z,94.41
2022-10-13T17:33:54.663Z,93.99
2022-10-13T17:36:24.224Z,94.10
2022-10-13T17:38:53.838Z,94.45
2022-10-13T17:41:22.131Z,94.55
2022-10-13T17:43:51.059Z,95.27
2022-10-13T17:46:38.378Z,95.35
2022-10-13T17:49:11.584Z,94.65
2022-10-13T17:51:39.929Z,94.62
2022-10-13T17:54:12.961Z,94.94
2022-10-13T17:56:43.645Z,94.76
2022-10-13T17:59:11.487Z,94.22
2022-10-13T18:01:42.655Z,95.12
2022-10-13T18:04:14.867Z,95.04
2022-10-13T18:06:44.725Z,94.52
2022-10-13T18:09:13.902Z,94.87
2022-10-13T18:11:48.502Z,95.06
2022-10-13T18:14:18.488Z,94.41
2022-10-13T18:16:46.829Z,94.36
2022-10-13T18:19:16.068Z,94.80
2022-10-13T18:21:43.887Z,95.08
2022-10-13T18:24:12.470Z,94.83
2022-10-13T18:26:40.711Z,94.88
2022-10-13T18:29:10.181Z,94.83
2022-10-13T18:31:39.366Z,95.33
2022-10-13T18:34:08.817Z,95.35
2022-10-13T18:36:39.614Z,94.56
2022-10-13T18:39:09.054Z,95.63
2022-10-13T18:41:38.532Z,94.93
2022-10-13T18:44:07.337Z,95.26
2022-10-13T18:46:36.658Z,95.28
2022-10-13T18:49:04.865Z,95.19
2022-10-13T18:51:36.291Z,95.06
2022-10-13T18:54:06.600Z,95.16
2022-10-13T18:56:36.760Z,95.04
2022-10-13T18:59:06.199Z,94.97
2022-10-13T19:01:35.814Z,94.57
2022-10-13T19:04:04.296Z,94.93
2022-10-13T19:06:32.740Z,95.15
2022-10-13T19:09:02.360Z,95.31
2022-10-13T19:11:32.128Z,95.67
2022-10-13T19:14:01.340Z,95.49
2022-10-13T19:16:31.194Z,95.62
2022-10-13T19:18:59.391Z,95.41
2022-10-13T19:21:29.889Z,95.80
2022-10-13T19:24:00.866Z,95.58
2022-10-13T19:26:32.762Z,95.72
2022-10-13T19:29:03.116Z,95.76
2022-10-13T19:31:32.980Z,95.91
2022-10-13T19:34:01.496Z,96.34
2022-10-13T19:36:31.777Z,96.00
2022-10-13T19:39:00.767Z,96.96
2022-10-13T19:41:31.825Z,97.00
2022-10-13T19:44:00.417Z,96.54
2022-10-13T19:46:28.277Z,96.73
2022-10-13T19:48:56.155Z,96.02
2022-10-13T19:51:23.965Z,96.36
2022-10-13T19:53:51.729Z,96.29
2022-10-13T19:56:23.949Z,96.51
2022-10-13T19:58:54.329Z,96.41
2022-10-13T20:01:22.842Z,96.70
2022-10-13T20:03:51.020Z,96.23
2022-10-13T20:06:19.870Z,96.19
2022-10-13T20:08:48.157Z,96.52
2022-10-13T20:11:22.993Z,96.18
2022-10-13T20:13:54.245Z,96.52
2022-10-13T20:16:23.862Z,96.91
2022-10-13T20:18:53.062Z,96.79
2022-10-13T20:21:20.854Z,96.96
2022-10-13T20:23:49.093Z,97.40
2022-10-13T20:26:17.375Z,97.44
2022-10-13T20:28:46.752Z,97.74
2022-10-13T20:31:18.149Z,97.40
2022-10-13T20:33:46.908Z,97.54
2022-10-13T20:36:18.959Z,97.44
2022-10-13T20:38:48.786Z,97.37
2022-10-13T20:41:18.785Z,96.97
2022-10-13T20:43:47.123Z,97.43
2022-10-13T20:46:18.026Z,96.94
2022-10-13T20:49:09.421Z,96.85
2022-10-13T20:51:33.766Z,97.09
2022-10-13T20:54:01.740Z,97.47
2022-10-13T20:56:29.855Z,96.89
2022-10-13T20:58:57.684Z,97.05
2022-10-13T21:01:26.848Z,96.53
2022-10-13T21:03:55.279Z,96.96
2022-10-13T21:06:24.743Z,96.69
2022-10-13T21:08:53.050Z,96.83
2022-10-13T21:11:22.474Z,96.62
2022-10-13T21:13:51.332Z,96.14
2022-10-13T21:16:22.249Z,96.36
2022-10-13T21:18:53.081Z,95.89
2022-10-13T21:21:22.574Z,95.92
2022-10-13T21:23:51.369Z,95.78
2022-10-13T21:26:21.816Z,95.95
2022-10-13T21:28:50.841Z,96.04
2022-10-13T21:31:20.169Z,96.46
2022-10-13T21:33:48.060Z,95.78
2022-10-13T21:36:19.411Z,96.36
2022-10-13T21:38:48.957Z,95.88
2022-10-13T21:41:16.918Z,96.11
2022-10-13T21:43:44.723Z,95.36
2022-10-13T21:46:14.156Z,95.65
2022-10-13T21:48:41.938Z,95.40
2022-10-13T21:51:14.215Z,95.64
2022-10-13T21:53:43.446Z,95.14
2022-10-13T21:56:12.762Z,95.74
2022-10-13T21:58:40.804Z,95.21
2022-10-13T22:01:08.942Z,95.49
2022-10-13T22:03:36.820Z,95.75
2022-10-13T22:06:06.850Z,95.71
2022-10-13T22:08:39.109Z,95.95
2022-10-13T22:11:09.967Z,95.24
2022-10-13T22:13:38.650Z,95.43
2022-10-13T22:16:08.616Z,95.75
2022-10-13T22:18:36.490Z,95.28
2022-10-13T22:21:05.513Z,95.95
2022-10-13T22:23:33.679Z,95.74
2022-10-13T22:26:01.577Z,95.60
2022-10-13T22:28:36.086Z,95.93
2022-10-13T22:31:05.731Z,95.92
2022-10-13T22:33:35.995Z,94.96
2022-10-13T22:36:08.445Z,95.03
2022-10-13T22:38:36.489Z,94.65
2022-10-13T22:41:05.045Z,95.07
2022-10-13T22:43:34.497Z,94.96
2022-10-13T22:46:02.941Z,94.74
2022-10-13T22:48:30.711Z,94.76
2022-10-13T22:50:58.477Z,94.56
2022-10-13T22:53:26.250Z,94.51
2022-10-13T22:55:54.064Z,94.37
2022-10-13T22:58:22.020Z,94.77
2022-10-13T23:00:51.176Z,94.47
2022-10-13T23:03:19.452Z,94.21
2022-10-13T23:05:49.160Z,94.71
2022-10-13T23:08:17.015Z,94.47
2022-10-13T23:10:44.778Z,94.39
2022-10-13T23:13:12.607Z,94.78
2022-10-13T23:15:40.387Z,94.58
2022-10-13T23:18:09.599Z,94.21
2022-10-13T23:20:40.823Z,94.68
2022-10-13T23:23:08.618Z,94.44
2022-10-13T23:25:37.012Z,94.81
2022-10-13T23:28:05.748Z,95.18
2022-10-13T23:30:33.537Z,94.72
2022-10-13T23:33:01.286Z,94.78
2022-10-13T23:35:30.448Z,94.60
2022-10-13T23:37:58.282Z,95.04
2022-10-13T23:40:26.024Z,95.72
2022-10-13T23:42:53.801Z,95.04
2022-10-13T23:45:21.567Z,95.52
2022-10-13T23:47:51.766Z,95.85
2022-10-13T23:50:19.531Z,96.16
2022-10-13T23:52:48.733Z,95.54
2022-10-13T23:55:16.751Z,95.50
2022-10-13T23:57:44.530Z,95.40
